createdAt,value
2023-01-19T00:00:42.545Z,17.30
2023-01-19T00:01:42.437Z,16.70
2023-01-19T00:02:42.454Z,17.10
2023-01-19T00:03:42.402Z,17.30
2023-01-19T00:04:42.403Z,18.20
2023-01-19T00:05:42.395Z,17.30
2023-01-19T00:06:42.464Z,17.10
2023-01-19T00:07:42.416Z,16.70
2023-01-19T00:08:42.384Z,16.60
2023-01-19T00:09:42.376Z,17.60
2023-01-19T00:10:42.397Z,17.00
2023-01-19T00:11:42.381Z,17.60
2023-01-19T00:12:42.409Z,17.30
2023-01-19T00:13:42.378Z,17.70
2023-01-19T00:14:42.380Z,16.70
2023-01-19T00:15:42.330Z,17.20
2023-01-19T00:16:42.335Z,18.40
2023-01-19T00:17:42.360Z,17.70
2023-01-19T00:18:42.349Z,18.30
2023-01-19T00:19:42.344Z,18.10
2023-01-19T00:20:42.308Z,18.70
2023-01-19T00:21:42.298Z,17.60
2023-01-19T00:22:42.307Z,17.70
2023-01-19T00:23:42.282Z,17.80
2023-01-19T00:24:42.334Z,17.60
2023-01-19T00:25:42.490Z,17.70
2023-01-19T00:26:42.260Z,17.70
2023-01-19T00:27:42.245Z,18.00
2023-01-19T00:28:42.280Z,18.90
2023-01-19T00:29:42.255Z,19.70
2023-01-19T00:30:42.325Z,19.70
2023-01-19T00:31:42.299Z,17.80
2023-01-19T00:32:42.247Z,18.70
2023-01-19T00:33:42.204Z,18.90
2023-01-19T00:34:42.205Z,19.70
2023-01-19T00:35:42.239Z,20.40
2023-01-19T00:36:42.446Z,20.00
2023-01-19T00:37:42.197Z,20.00
2023-01-19T00:38:42.222Z,21.40
2023-01-19T00:39:42.162Z,21.10
2023-01-19T00:40:42.174Z,20.50
2023-01-19T00:41:42.242Z,22.20
2023-01-19T00:42:42.223Z,22.20
2023-01-19T00:43:42.143Z,22.70
2023-01-19T00:44:42.154Z,22.00
2023-01-19T00:45:42.170Z,25.00
2023-01-19T00:46:42.129Z,20.60
2023-01-19T00:47:42.138Z,20.70
2023-01-19T00:48:42.165Z,21.90
2023-01-19T00:49:42.121Z,22.20
2023-01-19T00:50:42.101Z,21.40
2023-01-19T00:51:42.115Z,21.90
2023-01-19T00:52:42.106Z,22.30
2023-01-19T00:53:42.091Z,22.20
2023-01-19T00:54:42.115Z,23.80
2023-01-19T00:55:42.067Z,23.80
2023-01-19T00:56:42.063Z,22.20
2023-01-19T00:57:42.065Z,21.50
2023-01-19T00:58:42.059Z,20.90
2023-01-19T00:59:42.067Z,21.90
2023-01-19T01:00:42.117Z,21.60
2023-01-19T01:01:45.198Z,21.10
2023-01-19T01:02:42.230Z,19.90
2023-01-19T01:03:42.023Z,20.40
2023-01-19T01:04:42.008Z,20.90
2023-01-19T01:05:41.998Z,21.20
2023-01-19T01:06:42.061Z,20.70
2023-01-19T01:07:41.996Z,20.90
2023-01-19T01:08:41.982Z,20.20
2023-01-19T01:09:42.018Z,19.80
2023-01-19T01:10:41.962Z,20.60
2023-01-19T01:11:41.990Z,20.00
2023-01-19T01:12:42.017Z,19.80
2023-01-19T01:13:42.978Z,20.30
2023-01-19T01:14:41.949Z,18.40
2023-01-19T01:15:41.971Z,19.40
2023-01-19T01:16:41.992Z,18.70
2023-01-19T01:17:41.958Z,17.60
2023-01-19T01:18:42.010Z,18.90
2023-01-19T01:19:41.937Z,17.80
2023-01-19T01:20:41.945Z,17.50
2023-01-19T01:21:41.950Z,17.90
2023-01-19T01:22:41.931Z,17.00
2023-01-19T01:23:41.929Z,16.70
2023-01-19T01:24:41.952Z,17.30
2023-01-19T01:25:41.895Z,17.90
2023-01-19T01:26:41.895Z,17.80
2023-01-19T01:27:41.894Z,19.00
2023-01-19T01:28:41.877Z,17.90
2023-01-19T01:29:41.874Z,18.50
2023-01-19T01:30:41.919Z,18.50
2023-01-19T01:31:41.909Z,19.00
2023-01-19T01:32:41.856Z,17.70
2023-01-19T01:33:42.095Z,18.50
2023-01-19T01:34:41.844Z,19.30
2023-01-19T01:35:41.822Z,19.30
2023-01-19T01:36:41.893Z,19.70
2023-01-19T01:37:41.810Z,19.90
2023-01-19T01:38:41.831Z,20.20
2023-01-19T01:39:41.804Z,19.50
2023-01-19T01:40:41.822Z,21.00
2023-01-19T01:41:41.781Z,20.10
2023-01-19T01:42:42.065Z,17.80
2023-01-19T01:43:41.799Z,18.10
2023-01-19T01:44:41.770Z,17.50
2023-01-19T01:46:02.863Z,16.70
2023-01-19T01:46:41.770Z,15.90
2023-01-19T01:47:41.759Z,16.50
2023-01-19T01:48:41.815Z,15.90
2023-01-19T01:49:41.727Z,16.80
2023-01-19T01:50:41.737Z,16.40
2023-01-19T01:51:41.729Z,16.60
2023-01-19T01:52:41.746Z,16.70
2023-01-19T01:53:41.710Z,15.80
2023-01-19T01:54:41.859Z,15.70
2023-01-19T01:55:41.699Z,15.80
2023-01-19T01:56:41.732Z,15.80
2023-01-19T01:57:41.687Z,16.60
2023-01-19T01:58:41.702Z,16.40
2023-01-19T01:59:41.692Z,16.50
2023-01-19T02:00:41.711Z,16.30
2023-01-19T02:01:41.764Z,16.80
2023-01-19T02:02:41.676Z,16.20
2023-01-19T02:03:41.714Z,16.60
2023-01-19T02:04:41.659Z,16.30
2023-01-19T02:05:41.628Z,16.20
2023-01-19T02:06:41.697Z,16.70
2023-01-19T02:07:41.651Z,16.00
2023-01-19T02:08:41.614Z,16.90
2023-01-19T02:09:41.639Z,17.40
2023-01-19T02:10:41.627Z,17.10
2023-01-19T02:11:41.619Z,17.10
2023-01-19T02:12:41.674Z,17.80
2023-01-19T02:13:41.602Z,16.90
2023-01-19T02:14:41.588Z,16.50
2023-01-19T02:15:41.583Z,16.80
2023-01-19T02:16:41.588Z,15.90
2023-01-19T02:17:41.581Z,16.30
2023-01-19T02:18:41.605Z,16.00
2023-01-19T02:19:41.541Z,15.30
2023-01-19T02:20:41.568Z,15.50
2023-01-19T02:21:41.535Z,16.80
2023-01-19T02:22:41.525Z,16.10
2023-01-19T02:23:41.553Z,16.80
2023-01-19T02:24:41.574Z,16.10
2023-01-19T02:25:41.511Z,15.90
2023-01-19T02:26:41.504Z,16.30
2023-01-19T02:27:41.509Z,16.70
2023-01-19T02:28:41.462Z,16.70
2023-01-19T02:29:41.508Z,16.40
2023-01-19T02:30:41.561Z,16.00
2023-01-19T02:31:41.483Z,16.10
2023-01-19T02:32:41.470Z,16.70
2023-01-19T02:33:41.458Z,15.70
2023-01-19T02:34:41.453Z,15.40
2023-01-19T02:35:41.497Z,15.30
2023-01-19T02:36:41.473Z,14.60
2023-01-19T02:37:41.507Z,15.10
2023-01-19T02:38:41.428Z,15.40
2023-01-19T02:39:41.443Z,15.40
2023-01-19T02:40:41.411Z,14.60
2023-01-19T02:41:41.409Z,15.30
2023-01-19T02:42:41.906Z,15.00
2023-01-19T02:43:41.415Z,14.50
2023-01-19T02:44:41.389Z,13.90
2023-01-19T02:45:41.381Z,13.70
2023-01-19T02:46:41.380Z,13.70
2023-01-19T02:47:41.356Z,14.10
2023-01-19T02:48:41.404Z,13.00
2023-01-19T02:49:41.365Z,13.50
2023-01-19T02:50:41.337Z,13.60
2023-01-19T02:51:41.335Z,13.60
2023-01-19T02:52:41.333Z,13.10
2023-01-19T02:53:41.342Z,13.20
2023-01-19T02:54:41.366Z,14.10
2023-01-19T02:55:41.290Z,13.50
2023-01-19T02:56:41.307Z,13.40
2023-01-19T02:57:41.302Z,12.00
2023-01-19T02:58:41.296Z,12.30
2023-01-19T02:59:41.295Z,12.60
2023-01-19T03:00:41.346Z,13.00
2023-01-19T03:01:41.380Z,13.80
2023-01-19T03:02:41.275Z,13.00
2023-01-19T03:03:41.262Z,13.20
2023-01-19T03:04:41.263Z,13.20
2023-01-19T03:05:41.240Z,12.80
2023-01-19T03:06:41.306Z,12.40
2023-01-19T03:07:41.237Z,12.70
2023-01-19T03:08:41.223Z,12.40
2023-01-19T03:09:41.237Z,12.20
2023-01-19T03:10:41.209Z,13.30
2023-01-19T03:11:41.210Z,13.40
2023-01-19T03:12:41.329Z,13.80
2023-01-19T03:13:41.190Z,13.10
2023-01-19T03:14:41.228Z,13.30
2023-01-19T03:15:41.245Z,13.90
2023-01-19T03:16:41.246Z,14.30
2023-01-19T03:17:41.147Z,13.50
2023-01-19T03:18:41.204Z,14.30
2023-01-19T03:19:41.166Z,14.00
2023-01-19T03:20:41.145Z,13.90
2023-01-19T03:21:41.158Z,14.20
2023-01-19T03:22:41.134Z,14.50
2023-01-19T03:23:41.139Z,14.40
2023-01-19T03:24:41.197Z,13.30
2023-01-19T03:25:41.107Z,13.90
2023-01-19T03:26:41.108Z,14.70
2023-01-19T03:27:41.164Z,14.10
2023-01-19T03:28:41.143Z,15.30
2023-01-19T03:29:41.097Z,14.90
2023-01-19T03:30:41.202Z,14.90
2023-01-19T03:31:41.101Z,14.40
2023-01-19T03:32:41.095Z,14.80
2023-01-19T03:33:41.046Z,15.60
2023-01-19T03:34:41.069Z,15.10
2023-01-19T03:35:41.063Z,15.40
2023-01-19T03:36:41.074Z,14.70
2023-01-19T03:37:41.054Z,15.30
2023-01-19T03:38:41.033Z,15.70
2023-01-19T03:39:41.059Z,15.00
2023-01-19T03:40:41.019Z,14.60
2023-01-19T03:41:41.015Z,14.70
2023-01-19T03:42:41.068Z,15.40
2023-01-19T03:43:41.071Z,14.90
2023-01-19T03:44:41.019Z,15.00
2023-01-19T03:45:40.994Z,15.20
2023-01-19T03:46:40.979Z,15.40
2023-01-19T03:47:51.108Z,15.00
2023-01-19T03:48:42.959Z,15.30
2023-01-19T03:49:40.963Z,15.00
2023-01-19T03:50:40.941Z,15.30
2023-01-19T03:51:40.965Z,14.40
2023-01-19T03:52:40.953Z,15.70
2023-01-19T03:53:40.920Z,15.80
2023-01-19T03:54:40.954Z,16.80
2023-01-19T03:55:40.899Z,17.20
2023-01-19T03:56:40.911Z,16.80
2023-01-19T03:57:40.912Z,17.90
2023-01-19T03:58:40.901Z,17.40
2023-01-19T03:59:40.878Z,16.90
2023-01-19T04:00:40.925Z,17.20
2023-01-19T04:01:40.990Z,17.10
2023-01-19T04:02:40.918Z,16.30
2023-01-19T04:03:40.861Z,16.70
2023-01-19T04:04:40.846Z,17.10
2023-01-19T04:05:40.835Z,18.00
2023-01-19T04:06:40.886Z,18.00
2023-01-19T04:07:40.849Z,19.10
2023-01-19T04:08:40.840Z,18.40
2023-01-19T04:09:40.794Z,19.20
2023-01-19T04:10:40.805Z,19.10
2023-01-19T04:11:40.821Z,19.00
2023-01-19T04:12:40.845Z,19.80
2023-01-19T04:13:40.786Z,18.60
2023-01-19T04:14:40.792Z,19.20
2023-01-19T04:15:40.793Z,19.00
2023-01-19T04:16:40.781Z,19.20
2023-01-19T04:17:40.796Z,19.80
2023-01-19T04:18:40.829Z,20.10
2023-01-19T04:19:40.780Z,20.20
2023-01-19T04:20:40.743Z,20.90
2023-01-19T04:21:40.763Z,18.70
2023-01-19T04:22:40.753Z,20.10
2023-01-19T04:23:40.739Z,19.70
2023-01-19T04:24:40.780Z,21.00
2023-01-19T04:25:40.721Z,20.80
2023-01-19T04:26:40.712Z,20.00
2023-01-19T04:27:40.714Z,20.70
2023-01-19T04:28:40.715Z,19.80
2023-01-19T04:29:40.683Z,20.80
2023-01-19T04:30:40.745Z,20.30
2023-01-19T04:31:40.662Z,20.20
2023-01-19T04:32:40.692Z,19.00
2023-01-19T04:33:40.671Z,19.50
2023-01-19T04:34:40.661Z,19.50
2023-01-19T04:35:40.648Z,18.70
2023-01-19T04:36:40.698Z,18.70
2023-01-19T04:37:40.611Z,18.50
2023-01-19T04:38:40.628Z,17.30
2023-01-19T04:39:40.648Z,17.00
2023-01-19T04:40:40.677Z,16.00
2023-01-19T04:41:40.620Z,16.10
2023-01-19T04:42:40.679Z,15.90
2023-01-19T04:43:40.607Z,15.80
2023-01-19T04:44:40.607Z,15.20
2023-01-19T04:45:40.644Z,15.20
2023-01-19T04:46:40.619Z,15.10
2023-01-19T04:47:40.577Z,15.90
2023-01-19T04:48:41.395Z,15.00
2023-01-19T04:49:40.532Z,14.70
2023-01-19T04:50:40.561Z,15.80
2023-01-19T04:51:40.546Z,14.90
2023-01-19T04:52:40.561Z,14.70
2023-01-19T04:53:40.557Z,15.50
2023-01-19T04:54:40.830Z,15.30
2023-01-19T04:55:40.530Z,14.70
2023-01-19T04:56:40.509Z,15.60
2023-01-19T04:57:40.489Z,14.30
2023-01-19T04:58:40.501Z,14.80
2023-01-19T04:59:40.499Z,14.60
2023-01-19T05:00:40.545Z,15.10
2023-01-19T05:01:40.472Z,15.00
2023-01-19T05:02:40.497Z,15.00
2023-01-19T05:03:40.475Z,15.10
2023-01-19T05:04:40.433Z,14.90
2023-01-19T05:05:40.474Z,14.60
2023-01-19T05:06:40.591Z,15.40
2023-01-19T05:07:40.442Z,14.30
2023-01-19T05:08:40.408Z,14.50
2023-01-19T05:09:40.436Z,14.60
2023-01-19T05:10:40.401Z,13.20
2023-01-19T05:11:40.384Z,14.50
2023-01-19T05:12:40.473Z,15.00
2023-01-19T05:13:40.432Z,15.10
2023-01-19T05:14:40.411Z,14.20
2023-01-19T05:15:40.356Z,14.40
2023-01-19T05:16:40.361Z,14.90
2023-01-19T05:17:40.391Z,14.80
2023-01-19T05:18:40.386Z,14.80
2023-01-19T05:19:40.350Z,14.30
2023-01-19T05:20:40.354Z,14.20
2023-01-19T05:21:40.331Z,13.80
2023-01-19T05:22:40.305Z,14.50
2023-01-19T05:23:40.336Z,14.00
2023-01-19T05:24:40.375Z,14.70
2023-01-19T05:25:40.322Z,15.00
2023-01-19T05:26:40.307Z,14.00
2023-01-19T05:27:40.330Z,14.40
2023-01-19T05:28:40.301Z,14.50
2023-01-19T05:29:40.272Z,14.40
2023-01-19T05:30:40.362Z,14.10
2023-01-19T05:31:40.275Z,14.00
2023-01-19T05:32:40.283Z,13.80
2023-01-19T05:33:40.256Z,13.70
2023-01-19T05:34:40.245Z,13.90
2023-01-19T05:35:40.275Z,13.70
2023-01-19T05:36:40.263Z,14.50
2023-01-19T05:37:40.236Z,14.30
2023-01-19T05:38:40.214Z,14.80
2023-01-19T05:39:40.225Z,14.10
2023-01-19T05:40:40.209Z,14.30
2023-01-19T05:41:40.203Z,14.90
2023-01-19T05:42:40.283Z,14.50
2023-01-19T05:43:40.191Z,14.60
2023-01-19T05:44:40.189Z,14.50
2023-01-19T05:45:40.186Z,14.80
2023-01-19T05:46:40.208Z,14.00
2023-01-19T05:47:40.178Z,15.10
2023-01-19T05:48:40.177Z,15.50
2023-01-19T05:49:40.121Z,15.80
2023-01-19T05:50:40.131Z,15.20
2023-01-19T05:51:40.119Z,15.60
2023-01-19T05:52:40.100Z,15.60
2023-01-19T05:53:40.110Z,14.60
2023-01-19T05:54:40.137Z,16.00
2023-01-19T05:55:40.085Z,15.90
2023-01-19T05:56:40.090Z,16.80
2023-01-19T05:57:40.100Z,15.90
2023-01-19T05:58:40.064Z,16.00
2023-01-19T05:59:40.065Z,16.20
2023-01-19T06:00:40.416Z,16.80
2023-01-19T06:01:40.517Z,16.10
2023-01-19T06:02:40.046Z,16.30
2023-01-19T06:03:40.049Z,16.50
2023-01-19T06:04:40.017Z,17.60
2023-01-19T06:05:40.036Z,16.50
2023-01-19T06:06:40.067Z,17.10
2023-01-19T06:07:39.997Z,15.70
2023-01-19T06:08:39.981Z,15.40
2023-01-19T06:09:40.000Z,16.50
2023-01-19T06:10:39.992Z,16.20
2023-01-19T06:11:39.987Z,15.60
2023-01-19T06:12:40.087Z,16.60
2023-01-19T06:13:41.370Z,16.30
2023-01-19T06:14:39.960Z,16.10
2023-01-19T06:15:39.965Z,16.70
2023-01-19T06:16:39.985Z,15.70
2023-01-19T06:17:39.938Z,16.20
2023-01-19T06:18:41.958Z,15.30
2023-01-19T06:19:39.975Z,15.60
2023-01-19T06:20:39.914Z,14.80
2023-01-19T06:21:39.921Z,15.60
2023-01-19T06:22:39.907Z,15.70
2023-01-19T06:23:39.889Z,15.50
2023-01-19T06:24:39.921Z,15.30
2023-01-19T06:25:39.886Z,15.60
2023-01-19T06:26:39.874Z,16.10
2023-01-19T06:27:39.885Z,15.30
2023-01-19T06:28:39.872Z,15.70
2023-01-19T06:29:39.872Z,15.40
2023-01-19T06:30:39.958Z,15.30
2023-01-19T06:31:39.899Z,15.70
2023-01-19T06:32:39.850Z,15.50
2023-01-19T06:33:39.842Z,14.80
2023-01-19T06:34:39.844Z,15.00
2023-01-19T06:35:39.824Z,14.50
2023-01-19T06:36:39.921Z,16.30
2023-01-19T06:37:39.804Z,14.60
2023-01-19T06:38:39.807Z,15.30
2023-01-19T06:39:39.798Z,15.60
2023-01-19T06:40:39.791Z,15.30
2023-01-19T06:41:39.779Z,15.30
2023-01-19T06:42:39.840Z,15.10
2023-01-19T06:43:39.764Z,14.90
2023-01-19T06:44:39.761Z,15.10
2023-01-19T06:45:39.773Z,14.80
2023-01-19T06:46:39.743Z,15.50
2023-01-19T06:47:39.739Z,13.80
2023-01-19T06:48:39.799Z,16.70
2023-01-19T06:49:39.735Z,14.70
2023-01-19T06:50:39.716Z,14.60
2023-01-19T06:51:39.731Z,14.70
2023-01-19T06:52:39.698Z,15.00
2023-01-19T06:53:39.702Z,14.40
2023-01-19T06:54:39.732Z,13.90
2023-01-19T06:55:39.722Z,14.60
2023-01-19T06:56:39.681Z,14.20
2023-01-19T06:57:39.651Z,14.10
2023-01-19T06:58:39.657Z,14.10
2023-01-19T06:59:39.668Z,13.00
2023-01-19T07:00:39.700Z,13.20
2023-01-19T07:01:39.753Z,13.90
2023-01-19T07:02:39.759Z,12.90
2023-01-19T07:03:39.621Z,13.40
2023-01-19T07:04:39.640Z,13.50
2023-01-19T07:05:39.617Z,13.60
2023-01-19T07:06:39.895Z,12.60
2023-01-19T07:07:39.649Z,12.90
2023-01-19T07:08:39.578Z,12.50
2023-01-19T07:09:39.617Z,13.20
2023-01-19T07:11:24.590Z,12.70
2023-01-19T07:11:40.622Z,12.10
2023-01-19T07:12:39.565Z,13.40
2023-01-19T07:13:39.573Z,12.80
2023-01-19T07:14:39.551Z,12.60
2023-01-19T07:15:39.592Z,12.70
2023-01-19T07:16:39.539Z,12.90
2023-01-19T07:17:39.607Z,12.50
2023-01-19T07:18:39.536Z,12.50
2023-01-19T07:19:39.522Z,13.30
2023-01-19T07:20:39.490Z,12.30
2023-01-19T07:21:39.516Z,12.20
2023-01-19T07:22:39.505Z,12.30
2023-01-19T07:23:39.529Z,12.10
2023-01-19T07:24:39.496Z,12.30
2023-01-19T07:25:39.490Z,12.90
2023-01-19T07:26:39.456Z,12.10
2023-01-19T07:27:39.462Z,11.10
2023-01-19T07:28:39.466Z,11.80
2023-01-19T07:29:39.511Z,12.00
2023-01-19T07:30:39.494Z,11.60
2023-01-19T07:31:39.532Z,12.20
2023-01-19T07:32:39.422Z,12.00
2023-01-19T07:33:39.425Z,12.40
2023-01-19T07:34:39.414Z,11.70
2023-01-19T07:35:39.469Z,11.60
2023-01-19T07:36:39.389Z,11.60
2023-01-19T07:37:39.404Z,11.70
2023-01-19T07:38:39.407Z,11.60
2023-01-19T07:39:39.369Z,11.90
2023-01-19T07:40:39.385Z,11.50
2023-01-19T07:41:39.421Z,12.00
2023-01-19T07:42:39.375Z,11.60
2023-01-19T07:43:39.337Z,12.30
2023-01-19T07:44:39.381Z,12.20
2023-01-19T07:45:39.370Z,12.20
2023-01-19T07:46:39.333Z,12.10
2023-01-19T07:47:39.396Z,12.10
2023-01-19T07:48:39.344Z,11.70
2023-01-19T07:49:39.349Z,12.00
2023-01-19T07:50:39.307Z,11.70
2023-01-19T07:51:39.330Z,12.30
2023-01-19T07:52:39.274Z,12.10
2023-01-19T07:53:39.375Z,12.20
2023-01-19T07:54:39.292Z,12.40
2023-01-19T07:55:39.280Z,12.00
2023-01-19T07:56:39.273Z,12.60
2023-01-19T07:57:39.273Z,12.00
2023-01-19T07:58:39.263Z,11.80
2023-01-19T07:59:39.290Z,12.00
2023-01-19T08:00:39.245Z,12.10
2023-01-19T08:01:39.330Z,11.80
2023-01-19T08:02:39.201Z,12.20
2023-01-19T08:03:39.208Z,11.50
2023-01-19T08:04:39.205Z,11.90
2023-01-19T08:05:39.285Z,12.00
2023-01-19T08:06:39.198Z,12.10
2023-01-19T08:07:39.211Z,12.50
2023-01-19T08:08:39.174Z,13.00
2023-01-19T08:09:39.175Z,12.30
2023-01-19T08:10:39.164Z,12.30
2023-01-19T08:11:39.580Z,12.40
2023-01-19T08:12:39.144Z,12.30
2023-01-19T08:13:39.152Z,12.70
2023-01-19T08:14:39.153Z,12.90
2023-01-19T08:15:39.173Z,12.30
2023-01-19T08:16:39.103Z,12.60
2023-01-19T08:17:39.217Z,13.20
2023-01-19T08:18:39.091Z,13.20
2023-01-19T08:19:41.362Z,13.00
2023-01-19T08:20:39.104Z,13.60
2023-01-19T08:21:39.148Z,12.50
2023-01-19T08:22:39.082Z,13.20
2023-01-19T08:23:39.204Z,13.40
2023-01-19T08:24:39.055Z,13.40
2023-01-19T08:25:39.064Z,14.50
2023-01-19T08:26:39.047Z,13.80
2023-01-19T08:27:39.031Z,14.10
2023-01-19T08:28:39.025Z,13.90
2023-01-19T08:29:39.086Z,13.90
2023-01-19T08:30:39.053Z,14.70
2023-01-19T08:31:39.147Z,13.30
2023-01-19T08:32:39.031Z,14.80
2023-01-19T08:33:38.995Z,14.20
2023-01-19T08:34:39.007Z,14.10
2023-01-19T08:35:39.016Z,15.00
2023-01-19T08:36:38.996Z,13.70
2023-01-19T08:37:38.987Z,14.10
2023-01-19T08:38:38.965Z,14.90
2023-01-19T08:39:38.952Z,14.50
2023-01-19T08:40:38.967Z,14.30
2023-01-19T08:41:39.033Z,14.60
2023-01-19T08:42:38.973Z,15.70
2023-01-19T08:43:38.925Z,15.20
2023-01-19T08:44:43.872Z,14.20
2023-01-19T08:45:39.904Z,13.90
2023-01-19T08:46:38.923Z,14.20
2023-01-19T08:47:38.996Z,13.90
2023-01-19T08:48:39.984Z,14.10
2023-01-19T08:49:38.892Z,13.60
2023-01-19T08:50:38.913Z,14.10
2023-01-19T08:51:38.882Z,13.20
2023-01-19T08:52:38.858Z,13.60
2023-01-19T08:53:38.881Z,15.40
2023-01-19T08:54:38.855Z,13.20
2023-01-19T08:55:38.867Z,13.80
2023-01-19T08:56:38.823Z,13.10
2023-01-19T08:57:38.818Z,13.70
2023-01-19T08:58:38.827Z,13.80
2023-01-19T08:59:38.863Z,14.20
2023-01-19T09:00:38.787Z,14.30
2023-01-19T09:01:38.976Z,14.30
2023-01-19T09:02:38.889Z,14.20
2023-01-19T09:03:38.799Z,14.90
2023-01-19T09:04:38.774Z,15.20
2023-01-19T09:05:38.880Z,15.40
2023-01-19T09:06:38.758Z,15.80
2023-01-19T09:07:38.753Z,15.70
2023-01-19T09:08:38.776Z,15.80
2023-01-19T09:09:38.775Z,15.50
2023-01-19T09:10:38.735Z,15.50
2023-01-19T09:11:38.787Z,15.60
2023-01-19T09:12:38.715Z,16.20
2023-01-19T09:13:38.706Z,16.10
2023-01-19T09:14:38.711Z,16.50
2023-01-19T09:15:38.705Z,16.50
2023-01-19T09:16:38.700Z,17.20
2023-01-19T09:17:39.017Z,16.20
2023-01-19T09:18:38.680Z,17.10
2023-01-19T09:19:38.677Z,17.90
2023-01-19T09:20:38.670Z,17.60
2023-01-19T09:21:38.654Z,17.40
2023-01-19T09:22:38.649Z,17.80
2023-01-19T09:23:38.691Z,17.60
2023-01-19T09:24:38.649Z,18.00
2023-01-19T09:25:38.620Z,18.20
2023-01-19T09:26:38.615Z,18.00
2023-01-19T09:27:38.626Z,19.60
2023-01-19T09:28:38.618Z,19.40
2023-01-19T09:29:38.672Z,19.20
2023-01-19T09:30:38.631Z,19.00
2023-01-19T09:31:38.670Z,18.90
2023-01-19T09:32:38.586Z,20.20
2023-01-19T09:33:38.589Z,20.80
2023-01-19T09:34:38.583Z,20.50
2023-01-19T09:35:38.647Z,19.50
2023-01-19T09:36:38.556Z,19.80
2023-01-19T09:37:38.554Z,20.00
2023-01-19T09:38:38.537Z,19.80
2023-01-19T09:39:38.611Z,19.90
2023-01-19T09:40:39.447Z,19.40
2023-01-19T09:41:38.583Z,19.50
2023-01-19T09:42:38.518Z,19.20
2023-01-19T09:43:38.519Z,18.90
2023-01-19T09:44:38.499Z,18.70
2023-01-19T09:45:38.491Z,19.40
2023-01-19T09:46:38.521Z,18.70
2023-01-19T09:47:38.538Z,19.40
2023-01-19T09:48:38.491Z,18.40
2023-01-19T09:49:38.493Z,18.90
2023-01-19T09:50:38.465Z,19.20
2023-01-19T09:51:38.556Z,20.20
2023-01-19T09:52:38.456Z,18.40
2023-01-19T09:53:38.490Z,19.20
2023-01-19T09:54:38.436Z,18.20
2023-01-19T09:55:38.426Z,18.10
2023-01-19T09:56:38.419Z,18.10
2023-01-19T09:57:38.421Z,18.00
2023-01-19T09:58:38.420Z,17.90
2023-01-19T09:59:38.451Z,19.20
2023-01-19T10:00:38.449Z,19.40
2023-01-19T10:01:38.446Z,19.00
2023-01-19T10:02:38.399Z,17.70
2023-01-19T10:03:38.378Z,18.40
2023-01-19T10:04:38.373Z,18.10
2023-01-19T10:05:38.415Z,17.40
2023-01-19T10:06:38.351Z,17.50
2023-01-19T10:07:38.348Z,17.50
2023-01-19T10:08:38.340Z,18.10
2023-01-19T10:09:38.333Z,18.10
2023-01-19T10:10:38.326Z,19.30
2023-01-19T10:11:51.895Z,19.00
2023-01-19T10:12:39.317Z,17.70
2023-01-19T10:13:38.317Z,16.80
2023-01-19T10:14:38.339Z,17.80
2023-01-19T10:15:38.289Z,17.60
2023-01-19T10:16:38.270Z,15.60
2023-01-19T10:17:38.586Z,16.70
2023-01-19T10:18:38.271Z,17.10
2023-01-19T10:19:38.302Z,17.50
2023-01-19T10:20:38.237Z,17.10
2023-01-19T10:21:38.256Z,16.70
2023-01-19T10:22:38.251Z,17.00
2023-01-19T10:23:38.284Z,16.30
2023-01-19T10:24:38.246Z,15.90
2023-01-19T10:25:38.305Z,15.80
2023-01-19T10:26:38.224Z,15.30
2023-01-19T10:27:38.229Z,15.40
2023-01-19T10:28:38.222Z,14.90
2023-01-19T10:29:38.259Z,14.60
2023-01-19T10:30:38.217Z,15.60
2023-01-19T10:31:38.265Z,14.50
2023-01-19T10:32:38.197Z,13.80
2023-01-19T10:33:38.219Z,13.60
2023-01-19T10:34:38.148Z,13.50
2023-01-19T10:35:38.200Z,13.10
2023-01-19T10:36:38.136Z,13.60
2023-01-19T10:37:38.117Z,13.50
2023-01-19T10:38:38.127Z,12.90
2023-01-19T10:39:38.899Z,12.20
2023-01-19T10:40:38.123Z,12.30
2023-01-19T10:41:38.207Z,12.00
2023-01-19T10:42:38.170Z,11.80
2023-01-19T10:43:38.133Z,11.70
2023-01-19T10:44:38.126Z,11.10
2023-01-19T10:45:38.099Z,11.40
2023-01-19T10:46:38.127Z,10.50
2023-01-19T10:47:38.162Z,10.80
2023-01-19T10:48:38.110Z,10.70
2023-01-19T10:49:38.127Z,10.90
2023-01-19T10:50:38.066Z,11.20
2023-01-19T10:51:38.087Z,11.80
2023-01-19T10:52:38.028Z,11.30
2023-01-19T10:53:38.142Z,10.70
2023-01-19T10:54:38.038Z,10.50
2023-01-19T10:55:38.178Z,10.80
2023-01-19T10:56:37.999Z,10.20
2023-01-19T10:57:38.079Z,10.30
2023-01-19T10:58:37.982Z,10.90
2023-01-19T10:59:38.091Z,10.50
2023-01-19T11:00:38.158Z,10.40
2023-01-19T11:01:38.246Z,9.70
2023-01-19T11:02:38.045Z,9.80
2023-01-19T11:03:37.961Z,10.00
2023-01-19T11:04:37.939Z,10.20
2023-01-19T11:05:38.016Z,9.70
2023-01-19T11:06:37.925Z,9.90
2023-01-19T11:07:37.935Z,9.70
2023-01-19T11:08:37.924Z,9.90
2023-01-19T11:09:37.929Z,9.50
2023-01-19T11:10:37.905Z,9.60
2023-01-19T11:11:37.931Z,9.30
2023-01-19T11:12:37.956Z,9.50
2023-01-19T11:13:37.904Z,8.80
2023-01-19T11:14:37.860Z,9.00
2023-01-19T11:15:37.856Z,9.00
2023-01-19T11:16:37.921Z,8.70
2023-01-19T11:17:37.877Z,8.90
2023-01-19T11:18:37.856Z,8.60
2023-01-19T11:19:37.811Z,8.80
2023-01-19T11:20:37.828Z,8.50
2023-01-19T11:21:37.859Z,8.30
2023-01-19T11:22:37.858Z,8.80
2023-01-19T11:23:38.354Z,7.70
2023-01-19T11:24:37.807Z,8.00
2023-01-19T11:25:37.900Z,8.30
2023-01-19T11:26:37.827Z,7.90
2023-01-19T11:27:37.800Z,7.80
2023-01-19T11:28:37.816Z,7.20
2023-01-19T11:29:37.819Z,8.00
2023-01-19T11:30:37.793Z,7.90
2023-01-19T11:31:37.780Z,7.70
2023-01-19T11:32:37.747Z,7.80
2023-01-19T11:33:37.834Z,7.50
2023-01-19T11:34:37.768Z,7.40
2023-01-19T11:35:37.786Z,7.80
2023-01-19T11:36:37.730Z,7.40
2023-01-19T11:37:37.738Z,7.70
2023-01-19T11:38:37.760Z,7.60
2023-01-19T11:39:37.715Z,7.40
2023-01-19T11:40:37.688Z,7.00
2023-01-19T11:41:37.793Z,7.50
2023-01-19T11:42:37.708Z,7.50
2023-01-19T11:43:48.525Z,7.20
2023-01-19T11:44:38.643Z,7.80
2023-01-19T11:45:37.677Z,8.40
2023-01-19T11:46:37.664Z,7.50
2023-01-19T11:47:37.734Z,8.20
2023-01-19T11:48:37.728Z,7.90
2023-01-19T11:49:37.735Z,8.30
2023-01-19T11:50:37.669Z,8.20
2023-01-19T11:51:37.640Z,8.60
2023-01-19T11:52:37.631Z,8.80
2023-01-19T11:53:37.667Z,8.30
2023-01-19T11:54:37.628Z,8.50
2023-01-19T11:55:37.610Z,8.20
2023-01-19T11:56:37.591Z,8.20
2023-01-19T11:57:37.600Z,8.50
2023-01-19T11:58:37.611Z,7.70
2023-01-19T11:59:37.606Z,7.30
2023-01-19T12:00:37.670Z,7.50
2023-01-19T12:01:37.552Z,7.20
2023-01-19T12:02:37.547Z,7.70
2023-01-19T12:03:37.557Z,7.80
2023-01-19T12:04:37.550Z,7.40
2023-01-19T12:05:37.623Z,7.30
2023-01-19T12:06:37.567Z,7.60
2023-01-19T12:07:37.523Z,7.40
2023-01-19T12:08:37.503Z,7.40
2023-01-19T12:09:37.508Z,7.20
2023-01-19T12:10:37.506Z,7.70
2023-01-19T12:11:37.550Z,7.80
2023-01-19T12:12:37.456Z,7.50
2023-01-19T12:13:37.467Z,7.80
2023-01-19T12:14:37.446Z,7.70
2023-01-19T12:15:37.447Z,8.00
2023-01-19T12:16:37.525Z,7.70
2023-01-19T12:17:37.545Z,8.30
2023-01-19T12:18:37.459Z,7.80
2023-01-19T12:19:37.546Z,8.70
2023-01-19T12:20:37.455Z,7.60
2023-01-19T12:21:37.427Z,8.10
2023-01-19T12:22:37.402Z,8.30
2023-01-19T12:23:37.503Z,7.90
2023-01-19T12:24:37.457Z,8.20
2023-01-19T12:25:37.401Z,8.60
2023-01-19T12:26:37.401Z,8.40
2023-01-19T12:27:37.362Z,8.60
2023-01-19T12:28:37.420Z,8.60
2023-01-19T12:29:37.681Z,9.10
2023-01-19T12:30:37.524Z,9.10
2023-01-19T12:31:37.502Z,8.80
2023-01-19T12:32:37.344Z,8.90
2023-01-19T12:33:37.339Z,8.10
2023-01-19T12:34:37.353Z,8.00
2023-01-19T12:35:37.386Z,8.10
2023-01-19T12:36:37.328Z,8.20
2023-01-19T12:37:37.337Z,7.90
2023-01-19T12:38:37.318Z,8.00
2023-01-19T12:39:37.375Z,8.50
2023-01-19T12:40:37.321Z,8.50
2023-01-19T12:41:37.336Z,8.60
2023-01-19T12:42:37.347Z,8.70
2023-01-19T12:43:37.295Z,8.20
2023-01-19T12:44:37.248Z,8.20
2023-01-19T12:45:37.421Z,8.10
2023-01-19T12:46:37.278Z,8.80
2023-01-19T12:47:37.731Z,8.40
2023-01-19T12:48:37.216Z,8.30
2023-01-19T12:49:37.201Z,8.40
2023-01-19T12:50:37.200Z,8.40
2023-01-19T12:51:37.255Z,8.80
2023-01-19T12:52:37.208Z,8.80
2023-01-19T12:53:37.288Z,8.20
2023-01-19T12:54:37.176Z,9.30
2023-01-19T12:55:37.168Z,8.10
2023-01-19T12:56:37.206Z,9.30